Terminal Aerodrome Forecast
Issued by NWS Knoxville/Tri Cities, TN

Home | Current Version | Previous Version | Text Only | Print | Product List | Glossary On
Versions: 1 2 3 4 5 6 7 8 9 10 11 12 13 14 15 16 17 18 19 20 21 22 23 24
000
FTUS44 KMRX 021215 AAA
TAFTYS
TAF AMD
KTYS 021215Z 0212/0312 35006KT P6SM SCT007 OVC015
      TEMPO 0212/0214 5SM -RA BR OVC007
     FM021400 02008KT P6SM OVC015
     FM021800 02008KT P6SM BKN035
     FM030100 03004KT P6SM BKN080
     FM030900 VRB03KT 4SM -RA BR BKN015 OVC035=

USA.gov is the U.S. government's official web portal to all federal, state and local government web resources and services.